KPOE/POE METAR and TAF weather

Enter ICAO airport designator
Station Type Date Time Source
KPOE METAR 2020/01/24 02:58 UTC NOAA

KPOE 240258Z AUTO 33005KT 10SM OVC014 09/07 A3002 RMK AO2 LTG DSNT S SLP168 T00940072 52022


Station Type Date Time Source
KPOE Decoded METAR 2020/01/24 02:58 UTC NOAA

Fort Polk, Polk AAF Ft Polk, LA, United States (KPOE) 31-03N 093-11-38W
Jan 23, 2020 - 09:58 PM EST / 2020.01.24 0258 UTC
Wind: from the NNW (330 degrees) at 6 MPH (5 KT):0
Visibility: 10 mile(s):0
Sky conditions: overcast
Weather: Lightning observed
Temperature: 48.9 F (9.4 C)
Dew Point: 45.0 F (7.2 C)
Relative Humidity: 86%
Pressure (altimeter): 30.02 in. Hg (1016 hPa)
Pressure tendency: 0.06 inches (2.2 hPa) higher than three hours ago
ob: KPOE 240258Z AUTO 33005KT 10SM OVC014 09/07 A3002 RMK AO2 LTG DSNT S SLP168 T00940072 52022
cycle: 3

Station Type Date Time Source
KPOE TAF 2020/01/24 00:06 UTC NOAA

TAF KPOE 240000Z 2400/2506 32009KT 9999 OVC010 QNH2990INS
BECMG 2406/2407 33009KT 9999 SKC QNH3002INS
BECMG 2415/2416 30010G15KT 9999 SKC QNH3004INS
BECMG 2421/2422 30006KT 9999 SKC QNH3008INS TX14/2421Z TN06/2412Z

Example: see airport list